113 Куст

Карта отелей и гостиниц, располагающихся рядом с аэропортом 113 Куст :

1100-й км Ханты-Мансийский автономный округ - Югра 61° 19' 17.4612" N, 62° 32' 4.4412" E
113 Куст Ямало-Ненецкий автономный округ 66° 47' 4.8588" N, 79° 35' 34.9188" E
Код аэродрома ИКАО
HB65
Код аэродрома RU
ХБ65
Координаты
N66.78468° E079.59303°
Превышение над уровнем моря
46
Основная полоса
Курс магнитный
Длина основной ВПП
Ширина основной ВПП
Покрытие основной ВПП
Освещение ВПП
Тип: 
Вертодром
Класс аэродрома: 
Принадлежность: 
Статус: 
Недействующий
Сайт: 
E-mail аэродрома: 
Страна: 
Россия
Регион: 
Ямало-Ненецкий автономный округ
Город: 
Дополнительная информация: 

Найти трансфер

С помощью этой формы Вы можете найти трансфер из аэропорта 113 Куст в город, аэропорт или вокзал:

Карта места

Javascript is required to view this map.

Погода в аэропортах:

Авиационная погода в Пскове

Регион: 
Погода METAR: 
ULOO 051100Z 02002MPS 330V070 9999 -SHRA FEW038CB 15/11 Q1015 R01/090070 NOSIG RMK QFE757
Время наблюдения
2021-08-05T11:00:00Z
Температура C
15.0
Точка росы
11.0
Направление ветра
20
Скорость ветра (узлы)
4
Метео видимость
6.21
Явления погоды
-SHRA
Условия полета
VFR

Авиационная погода в Вадсё

Регион: 
Погода METAR: 
ENVD 051050Z 25006KT 9999 VCSH BKN050 14/09 Q1010
Время наблюдения
2021-08-05T10:50:00Z
Температура C
14.0
Точка росы
9.0
Направление ветра
250
Скорость ветра (узлы)
6
Метео видимость
6.21
Явления погоды
VCSH
Условия полета
VFR

Авиационная погода в Мирном

Регион: 
Погода METAR: 
UERR 051100Z 25002MPS 1000 HZ VV004 19/15 Q1006 R25/CLRD60 TEMPO 0500 HZ RMK QBB140 QFE724/0965
Время наблюдения
2021-08-05T11:00:00Z
Температура C
19.0
Точка росы
15.0
Направление ветра
250
Скорость ветра (узлы)
4
Метео видимость
0.62
Явления погоды
HZ
Условия полета
LIFR
Аэропорт подробнее: 

Авиационная погода в Хомутово

Регион: 
Погода METAR: 
UHSS 051100Z 35004MPS 9000 -SHRA BKN008 BKN012CB 18/18 Q1006 R01/70D NOSIG RMK MT OBSC QFE754/1005
Время наблюдения
2021-08-05T11:00:00Z
Температура C
18.0
Точка росы
18.0
Направление ветра
350
Скорость ветра (узлы)
8
Метео видимость
5.59
Явления погоды
-SHRA
Условия полета
IFR
Аэропорт подробнее: